createdAt,value
2024-01-15T00:00:26.817Z,100.00
2024-01-15T00:03:48.792Z,100.00
2024-01-15T00:07:11.255Z,100.00
2024-01-15T00:10:32.637Z,100.00
2024-01-15T00:13:55.919Z,100.00
2024-01-15T00:17:17.320Z,100.00
2024-01-15T00:20:38.518Z,100.00
2024-01-15T00:23:59.972Z,100.00
2024-01-15T00:27:21.198Z,100.00
2024-01-15T00:30:44.812Z,100.00
2024-01-15T00:34:06.762Z,100.00
2024-01-15T00:37:28.075Z,100.00
2024-01-15T00:40:49.612Z,100.00
2024-01-15T00:44:11.355Z,100.00
2024-01-15T00:47:34.092Z,100.00
2024-01-15T00:50:56.016Z,100.00
2024-01-15T00:54:17.390Z,100.00
2024-01-15T00:57:39.373Z,100.00
2024-01-15T01:01:01.013Z,100.00
2024-01-15T01:04:24.226Z,100.00
2024-01-15T01:07:45.928Z,100.00
2024-01-15T01:11:08.009Z,100.00
2024-01-15T01:14:29.550Z,100.00
2024-01-15T01:17:50.887Z,100.00
2024-01-15T01:21:13.875Z,100.00
2024-01-15T01:24:35.520Z,100.00
2024-01-15T01:27:57.131Z,100.00
2024-01-15T01:31:19.125Z,100.00
2024-01-15T01:34:43.148Z,100.00
2024-01-15T01:38:06.073Z,100.00
2024-01-15T01:41:27.439Z,100.00
2024-01-15T01:44:48.871Z,100.00
2024-01-15T01:48:10.599Z,100.00
2024-01-15T01:51:32.116Z,100.00
2024-01-15T01:54:56.291Z,100.00
2024-01-15T01:58:17.846Z,100.00
2024-01-15T02:01:39.452Z,100.00
2024-01-15T02:05:01.486Z,100.00
2024-01-15T02:08:23.683Z,100.00
2024-01-15T02:11:48.878Z,100.00
2024-01-15T02:15:10.324Z,100.00
2024-01-15T02:18:42.176Z,100.00
2024-01-15T02:22:04.032Z,100.00
2024-01-15T02:25:26.894Z,100.00
2024-01-15T02:28:48.339Z,100.00
2024-01-15T02:32:11.050Z,100.00
2024-01-15T02:35:32.520Z,100.00
2024-01-15T02:38:53.863Z,100.00
2024-01-15T02:42:16.530Z,100.00
2024-01-15T02:45:38.607Z,100.00
2024-01-15T02:49:00.649Z,100.00
2024-01-15T02:52:22.564Z,100.00
2024-01-15T02:55:44.266Z,100.00
2024-01-15T02:59:07.271Z,100.00
2024-01-15T03:02:28.892Z,100.00
2024-01-15T03:05:50.287Z,100.00
2024-01-15T03:09:11.647Z,99.83
2024-01-15T03:12:33.509Z,99.54
2024-01-15T03:15:56.371Z,100.00
2024-01-15T03:19:18.279Z,100.00
2024-01-15T03:22:39.910Z,99.50
2024-01-15T03:26:01.023Z,99.22
2024-01-15T03:29:22.987Z,100.00
2024-01-15T03:32:45.707Z,99.21
2024-01-15T03:36:08.377Z,98.91
2024-01-15T03:39:30.070Z,98.72
2024-01-15T03:42:51.913Z,98.05
2024-01-15T03:46:13.770Z,98.48
2024-01-15T03:49:36.571Z,99.42
2024-01-15T03:52:58.267Z,98.71
2024-01-15T03:56:19.659Z,98.71
2024-01-15T03:59:42.671Z,98.44
2024-01-15T04:03:04.735Z,98.18
2024-01-15T04:06:27.744Z,96.92
2024-01-15T04:09:49.552Z,96.76
2024-01-15T04:13:11.217Z,96.90
2024-01-15T04:16:32.414Z,95.24
2024-01-15T04:19:53.951Z,94.69
2024-01-15T04:23:16.671Z,94.96
2024-01-15T04:26:38.094Z,94.68
2024-01-15T04:29:59.442Z,94.14
2024-01-15T04:33:20.887Z,94.43
2024-01-15T04:36:43.079Z,95.16
2024-01-15T04:40:06.829Z,96.34
2024-01-15T04:43:28.216Z,96.29
2024-01-15T04:46:50.221Z,97.62
2024-01-15T04:50:11.799Z,96.94
2024-01-15T04:53:32.999Z,96.74
2024-01-15T04:56:55.634Z,95.13
2024-01-15T05:00:17.530Z,95.14
2024-01-15T05:03:38.876Z,94.33
2024-01-15T05:07:00.633Z,92.95
2024-01-15T05:10:22.506Z,94.14
2024-01-15T05:13:45.156Z,96.84
2024-01-15T05:17:09.679Z,97.25
2024-01-15T05:20:33.258Z,97.77
2024-01-15T05:23:54.776Z,97.44
2024-01-15T05:27:16.008Z,98.20
2024-01-15T05:30:39.170Z,97.69
2024-01-15T05:34:01.144Z,96.89
2024-01-15T05:37:23.277Z,96.77
2024-01-15T05:40:44.739Z,96.50
2024-01-15T05:44:06.858Z,96.31
2024-01-15T05:47:29.736Z,95.95
2024-01-15T05:50:51.135Z,96.43
2024-01-15T05:54:12.405Z,96.57
2024-01-15T05:57:33.579Z,96.93
2024-01-15T06:00:54.995Z,99.04
2024-01-15T06:04:18.068Z,100.00
2024-01-15T06:07:39.776Z,100.00
2024-01-15T06:11:02.262Z,100.00
2024-01-15T06:14:24.123Z,100.00
2024-01-15T06:17:45.438Z,100.00
2024-01-15T06:21:08.742Z,98.45
2024-01-15T06:24:30.334Z,97.45
2024-01-15T06:27:51.658Z,96.85
2024-01-15T06:31:13.564Z,95.53
2024-01-15T06:34:35.134Z,95.49
2024-01-15T06:37:57.640Z,94.51
2024-01-15T06:41:18.929Z,94.97
2024-01-15T06:44:40.227Z,95.96
2024-01-15T06:48:01.529Z,100.00
2024-01-15T06:51:23.269Z,100.00
2024-01-15T06:54:46.192Z,100.00
2024-01-15T06:58:08.080Z,99.96
2024-01-15T07:01:29.597Z,98.02
2024-01-15T07:04:51.251Z,97.22
2024-01-15T07:08:12.624Z,99.77
2024-01-15T07:11:35.198Z,100.00
2024-01-15T07:14:56.812Z,100.00
2024-01-15T07:18:18.704Z,100.00
2024-01-15T07:21:41.176Z,100.00
2024-01-15T07:25:02.978Z,99.69
2024-01-15T07:28:26.365Z,99.26
2024-01-15T07:31:50.924Z,100.00
2024-01-15T07:35:12.864Z,98.39
2024-01-15T07:38:34.137Z,98.90
2024-01-15T07:41:55.569Z,98.45
2024-01-15T07:45:18.614Z,97.99
2024-01-15T07:48:40.343Z,97.82
2024-01-15T07:52:02.218Z,97.41
2024-01-15T07:55:24.035Z,98.61
2024-01-15T07:58:45.696Z,98.13
2024-01-15T08:02:08.422Z,98.44
2024-01-15T08:05:29.876Z,99.14
2024-01-15T08:08:51.259Z,99.06
2024-01-15T08:12:13.865Z,99.74
2024-01-15T08:15:35.533Z,99.84
2024-01-15T08:18:58.850Z,98.63
2024-01-15T08:22:20.496Z,98.80
2024-01-15T08:25:41.940Z,96.99
2024-01-15T08:29:03.211Z,96.75
2024-01-15T08:32:24.430Z,97.25
2024-01-15T08:35:47.841Z,96.84
2024-01-15T08:39:10.261Z,97.28
2024-01-15T08:42:32.308Z,96.74
2024-01-15T08:45:53.993Z,96.51
2024-01-15T08:49:15.462Z,96.78
2024-01-15T08:52:39.348Z,96.21
2024-01-15T08:56:00.741Z,96.35
2024-01-15T08:59:26.756Z,95.40
2024-01-15T09:02:48.357Z,95.13
2024-01-15T09:06:10.620Z,93.84
2024-01-15T09:09:33.333Z,93.23
2024-01-15T09:12:55.192Z,92.60
2024-01-15T09:16:16.938Z,91.25
2024-01-15T09:19:40.290Z,90.98
2024-01-15T09:23:02.088Z,91.80
2024-01-15T09:26:24.990Z,96.63
2024-01-15T09:29:47.238Z,97.81
2024-01-15T09:33:08.888Z,99.69
2024-01-15T09:36:30.825Z,99.82
2024-01-15T09:39:52.532Z,100.00
2024-01-15T09:43:17.834Z,99.19
2024-01-15T09:46:39.295Z,98.85
2024-01-15T09:50:01.481Z,98.19
2024-01-15T09:53:23.510Z,97.69
2024-01-15T09:56:47.621Z,96.76
2024-01-15T10:00:13.106Z,96.22
2024-01-15T10:03:35.392Z,96.46
2024-01-15T10:06:58.689Z,95.88
2024-01-15T10:10:20.284Z,95.53
2024-01-15T10:13:42.111Z,94.53
2024-01-15T10:17:14.249Z,94.31
2024-01-15T10:20:35.443Z,93.61
2024-01-15T10:23:56.752Z,93.82
2024-01-15T10:27:18.420Z,95.04
2024-01-15T10:30:39.953Z,94.72
2024-01-15T10:34:16.415Z,95.56
2024-01-15T10:37:38.372Z,95.30
2024-01-15T10:40:59.830Z,94.52
2024-01-15T10:44:21.505Z,94.20
2024-01-15T10:47:43.040Z,97.10
2024-01-15T10:51:11.927Z,100.00
2024-01-15T10:54:34.446Z,100.00
2024-01-15T10:57:57.840Z,100.00
2024-01-15T11:01:21.011Z,100.00
2024-01-15T11:04:42.989Z,98.92
2024-01-15T11:08:08.128Z,97.95
2024-01-15T11:11:29.414Z,95.34
2024-01-15T11:14:52.236Z,93.60
2024-01-15T11:18:14.225Z,91.31
2024-01-15T11:21:44.468Z,90.16
2024-01-15T11:25:15.990Z,89.15
2024-01-15T11:28:56.921Z,90.09
2024-01-15T11:32:20.748Z,89.15
2024-01-15T11:35:51.795Z,87.89
2024-01-15T11:39:44.469Z,87.62
2024-01-15T11:43:08.698Z,84.94
2024-01-15T11:46:39.809Z,85.56
2024-01-15T11:50:03.342Z,84.92
2024-01-15T11:53:36.234Z,84.37
2024-01-15T11:57:01.293Z,83.94
2024-01-15T12:00:25.323Z,82.90
2024-01-15T12:03:49.244Z,83.87
2024-01-15T12:07:10.849Z,80.94
2024-01-15T12:10:32.828Z,80.55
2024-01-15T12:13:56.061Z,79.19
2024-01-15T12:17:18.728Z,79.05
2024-01-15T12:20:40.298Z,80.72
2024-01-15T12:24:01.733Z,80.56
2024-01-15T12:27:23.443Z,79.51
2024-01-15T12:30:50.458Z,79.82
2024-01-15T12:34:13.480Z,80.61
2024-01-15T12:37:37.466Z,80.62
2024-01-15T12:40:58.969Z,81.65
2024-01-15T12:44:20.186Z,82.78
2024-01-15T12:47:42.218Z,82.18
2024-01-15T12:51:08.153Z,82.31
2024-01-15T12:54:29.607Z,83.54
2024-01-15T12:57:53.842Z,84.53
2024-01-15T13:01:15.839Z,86.19
2024-01-15T13:04:37.540Z,86.68
2024-01-15T13:08:01.342Z,87.16
2024-01-15T13:11:23.033Z,88.19
2024-01-15T13:14:44.451Z,91.12
2024-01-15T13:18:06.615Z,100.00
2024-01-15T13:21:28.087Z,100.00
2024-01-15T13:24:50.862Z,100.00
2024-01-15T13:28:12.594Z,100.00
2024-01-15T13:31:34.493Z,100.00
2024-01-15T13:34:56.664Z,100.00
2024-01-15T13:38:18.492Z,100.00
2024-01-15T13:41:41.636Z,100.00
2024-01-15T13:45:03.972Z,100.00
2024-01-15T13:48:25.649Z,100.00
2024-01-15T13:51:47.608Z,100.00
2024-01-15T13:55:10.289Z,100.00
2024-01-15T13:58:33.873Z,100.00
2024-01-15T14:01:55.928Z,100.00
2024-01-15T14:05:17.503Z,100.00
2024-01-15T14:08:39.624Z,100.00
2024-01-15T14:12:00.963Z,100.00
2024-01-15T14:15:24.224Z,100.00
2024-01-15T14:18:46.188Z,100.00
2024-01-15T14:22:08.134Z,97.53
2024-01-15T14:25:29.958Z,97.47
2024-01-15T14:28:52.045Z,97.19
2024-01-15T14:32:15.384Z,97.20
2024-01-15T14:35:37.239Z,96.35
2024-01-15T14:39:00.945Z,96.14
2024-01-15T14:42:22.511Z,95.87
2024-01-15T14:45:46.087Z,94.95
2024-01-15T14:49:09.716Z,94.39
2024-01-15T14:52:31.528Z,93.65
2024-01-15T14:55:55.111Z,92.75
2024-01-15T14:59:16.837Z,92.40
2024-01-15T15:02:38.874Z,91.38
2024-01-15T15:06:02.839Z,91.62
2024-01-15T15:09:24.808Z,92.48
2024-01-15T15:12:46.082Z,90.97
2024-01-15T15:16:08.562Z,90.37
2024-01-15T15:19:30.492Z,90.45
2024-01-15T15:22:56.828Z,89.97
2024-01-15T15:26:18.330Z,89.94
2024-01-15T15:29:39.605Z,88.88
2024-01-15T15:33:01.393Z,89.15
2024-01-15T15:36:23.277Z,88.94
2024-01-15T15:39:46.289Z,90.13
2024-01-15T15:43:08.004Z,88.62
2024-01-15T15:46:29.439Z,89.53
2024-01-15T15:49:50.831Z,89.06
2024-01-15T15:53:13.566Z,88.28
2024-01-15T15:56:39.481Z,88.69
2024-01-15T16:00:01.067Z,89.42
2024-01-15T16:03:23.252Z,88.51
2024-01-15T16:06:47.601Z,88.48
2024-01-15T16:10:10.764Z,88.30
2024-01-15T16:13:33.884Z,88.96
2024-01-15T16:23:13.363Z,88.63
2024-01-15T16:23:32.007Z,88.70
2024-01-15T16:24:30.068Z,88.80
2024-01-15T16:27:59.770Z,88.50
2024-01-15T16:31:23.017Z,88.96
2024-01-15T16:34:44.126Z,89.69
2024-01-15T16:38:05.531Z,89.38
2024-01-15T16:41:27.318Z,89.77
2024-01-15T16:44:49.013Z,88.18
2024-01-15T16:48:11.935Z,88.50
2024-01-15T16:51:33.601Z,88.58
2024-01-15T16:54:54.956Z,89.33
2024-01-15T16:58:16.193Z,87.88
2024-01-15T17:01:37.558Z,87.75
2024-01-15T17:05:00.193Z,88.10
2024-01-15T17:08:21.866Z,88.69
2024-01-15T17:11:43.489Z,88.61
2024-01-15T17:15:05.549Z,88.89
2024-01-15T17:18:26.929Z,89.16
2024-01-15T17:21:49.611Z,88.11
2024-01-15T17:25:11.012Z,89.36
2024-01-15T17:28:32.645Z,89.12
2024-01-15T17:31:54.251Z,89.48
2024-01-15T17:35:15.834Z,88.72
2024-01-15T17:38:39.328Z,88.35
2024-01-15T17:42:00.629Z,88.50
2024-01-15T17:45:22.105Z,87.45
2024-01-15T17:48:43.614Z,87.92
2024-01-15T17:52:05.199Z,88.77
2024-01-15T17:55:28.326Z,88.86
2024-01-15T17:58:50.558Z,88.64
2024-01-15T18:02:12.653Z,89.04
2024-01-15T18:05:34.450Z,89.30
2024-01-15T18:08:56.094Z,89.88
2024-01-15T18:12:18.917Z,89.28
2024-01-15T18:15:41.138Z,87.87
2024-01-15T18:19:02.826Z,88.87
2024-01-15T18:22:24.295Z,88.80
2024-01-15T18:25:46.207Z,89.83
2024-01-15T18:29:09.048Z,89.06
2024-01-15T18:32:30.673Z,90.12
2024-01-15T18:35:52.444Z,89.01
2024-01-15T18:39:16.495Z,88.98
2024-01-15T18:42:37.879Z,87.82
2024-01-15T18:46:00.631Z,88.59
2024-01-15T18:49:22.297Z,88.09
2024-01-15T18:52:43.965Z,87.72
2024-01-15T18:56:05.890Z,87.57
2024-01-15T18:59:27.261Z,87.16
2024-01-15T19:02:49.940Z,87.58
2024-01-15T19:06:16.237Z,88.64
2024-01-15T19:09:38.169Z,88.34
2024-01-15T19:12:59.721Z,88.12
2024-01-15T19:16:23.347Z,87.83
2024-01-15T19:19:50.433Z,87.99
2024-01-15T19:23:11.914Z,86.75
2024-01-15T19:26:33.428Z,87.11
2024-01-15T19:29:55.146Z,87.00
2024-01-15T19:33:16.411Z,86.62
2024-01-15T19:36:40.837Z,85.26
2024-01-15T19:40:02.937Z,84.05
2024-01-15T19:43:24.897Z,83.92
2024-01-15T19:46:46.204Z,83.59
2024-01-15T19:50:08.590Z,84.66
2024-01-15T19:53:31.770Z,82.48
2024-01-15T19:56:53.539Z,82.07
2024-01-15T20:00:15.399Z,82.06
2024-01-15T20:03:36.913Z,82.89
2024-01-15T20:06:58.797Z,79.72
2024-01-15T20:10:21.543Z,78.37
2024-01-15T20:13:43.963Z,78.45
2024-01-15T20:17:06.007Z,78.23
2024-01-15T20:20:27.839Z,78.57
2024-01-15T20:23:55.226Z,78.16
2024-01-15T20:27:22.121Z,76.56
2024-01-15T20:30:43.684Z,77.09
2024-01-15T20:34:05.165Z,77.31
2024-01-15T20:37:26.726Z,78.65
2024-01-15T20:40:48.349Z,77.22
2024-01-15T20:44:11.370Z,79.06
2024-01-15T20:47:33.365Z,77.63
2024-01-15T20:50:55.109Z,78.72
2024-01-15T20:54:16.282Z,77.58
2024-01-15T20:57:37.625Z,77.70
2024-01-15T21:01:00.795Z,78.53
2024-01-15T21:04:23.249Z,77.17
2024-01-15T21:07:45.364Z,76.56
2024-01-15T21:11:07.372Z,76.22
2024-01-15T21:14:28.856Z,76.32
2024-01-15T21:17:51.566Z,77.72
2024-01-15T21:21:13.137Z,75.50
2024-01-15T21:24:34.367Z,74.92
2024-01-15T21:27:55.719Z,76.17
2024-01-15T21:31:17.154Z,76.07
2024-01-15T21:34:39.790Z,76.79
2024-01-15T21:38:02.179Z,75.61
2024-01-15T21:41:23.885Z,75.35
2024-01-15T21:44:45.606Z,75.01
2024-01-15T21:48:07.507Z,76.28
2024-01-15T21:51:30.577Z,75.71
2024-01-15T21:54:52.093Z,75.61
2024-01-15T21:58:13.428Z,75.02
2024-01-15T22:01:34.750Z,74.86
2024-01-15T22:04:56.093Z,75.50
2024-01-15T22:08:18.873Z,74.44
2024-01-15T22:11:41.500Z,74.19
2024-01-15T22:15:04.889Z,75.01
2024-01-15T22:18:26.170Z,74.64
2024-01-15T22:21:48.888Z,73.94
2024-01-15T22:25:12.673Z,74.39
2024-01-15T22:28:34.274Z,74.24
2024-01-15T22:31:55.665Z,73.29
2024-01-15T22:35:17.084Z,74.83
2024-01-15T22:38:38.903Z,74.46
2024-01-15T22:42:02.055Z,74.57
2024-01-15T22:45:23.592Z,75.09
2024-01-15T22:48:45.354Z,73.91
2024-01-15T22:52:07.460Z,74.58
2024-01-15T22:55:28.642Z,73.90
2024-01-15T22:58:51.279Z,74.71
2024-01-15T23:02:12.815Z,74.86
2024-01-15T23:05:34.168Z,74.74
2024-01-15T23:08:56.525Z,73.49
2024-01-15T23:12:17.893Z,73.72
2024-01-15T23:15:40.887Z,73.31
2024-01-15T23:19:02.240Z,73.33
2024-01-15T23:22:24.021Z,72.75
2024-01-15T23:25:45.540Z,73.10
2024-01-15T23:29:06.836Z,74.14
2024-01-15T23:32:29.998Z,73.46
2024-01-15T23:35:53.149Z,74.98
2024-01-15T23:39:15.883Z,74.90
2024-01-15T23:42:37.094Z,76.20
2024-01-15T23:46:06.371Z,74.64
2024-01-15T23:49:36.549Z,74.88
2024-01-15T23:52:58.173Z,75.76
2024-01-15T23:56:19.567Z,75.50
2024-01-15T23:59:41.983Z,75.96
